ENBL/FDE METAR and TAF weather

Enter ICAO airport designator
Station Type Date Time Source
ENBL METAR 2022/08/13 11:50 UTC NOAA

ENBL 131150Z 23004KT 9999 FEW008 SCT022 BKN042 16/14 Q1021


Station Type Date Time Source
ENBL Decoded METAR 2022/08/13 11:50 UTC NOAA

Forde / Bringeland, Norway (ENBL) 61-27N 005-52E
Aug 13, 2022 - 07:50 AM EDT / 2022.08.13 1150 UTC
Wind: from the SW (230 degrees) at 5 MPH (4 KT):0
Visibility: greater than 7 mile(s):0
Sky conditions: mostly cloudy
Temperature: 60 F (16 C)
Dew Point: 57 F (14 C)
Relative Humidity: 87%
Pressure (altimeter): 30.15 in. Hg (1021 hPa)
ob: ENBL 131150Z 23004KT 9999 FEW008 SCT022 BKN042 16/14 Q1021
cycle: 12

Station Type Date Time Source
ENBL TAF UTC NOAA

Error!

Example: see airport list